sensor_id;sensor_type;location;lat;lon;timestamp;temperature;humidity
22676;DHT22;12521;43.310;21.876;2024-02-15T00:07:17;5.6;96.0
22676;DHT22;12521;43.310;21.876;2024-02-15T00:11:53;5.6;96.0
22676;DHT22;12521;43.310;21.876;2024-02-15T00:16:29;5.6;96.0
22676;DHT22;12521;43.310;21.876;2024-02-15T00:21:06;5.6;96.0
22676;DHT22;12521;43.310;21.876;2024-02-15T00:25:43;5.5;96.0
22676;DHT22;12521;43.310;21.876;2024-02-15T00:30:19;5.5;96.0
22676;DHT22;12521;43.310;21.876;2024-02-15T00:34:56;5.4;96.0
22676;DHT22;12521;43.310;21.876;2024-02-15T00:39:32;5.4;96.0
22676;DHT22;12521;43.310;21.876;2024-02-15T00:44:10;5.4;96.0
22676;DHT22;12521;43.310;21.876;2024-02-15T00:48:46;5.4;96.0
22676;DHT22;12521;43.310;21.876;2024-02-15T00:53:22;5.4;96.0
22676;DHT22;12521;43.310;21.876;2024-02-15T01:48:46;4.5;96.0
22676;DHT22;12521;43.310;21.876;2024-02-15T01:53:23;4.5;96.0
22676;DHT22;12521;43.310;21.876;2024-02-15T01:58:04;4.5;96.0
22676;DHT22;12521;43.310;21.876;2024-02-15T02:02:46;4.5;96.0
22676;DHT22;12521;43.310;21.876;2024-02-15T02:07:22;4.4;96.0
22676;DHT22;12521;43.310;21.876;2024-02-15T02:11:59;4.4;96.0
22676;DHT22;12521;43.310;21.876;2024-02-15T02:16:36;4.4;96.0
22676;DHT22;12521;43.310;21.876;2024-02-15T02:21:12;4.4;96.0
22676;DHT22;12521;43.310;21.876;2024-02-15T02:25:48;4.4;96.0
22676;DHT22;12521;43.310;21.876;2024-02-15T02:30:24;4.4;96.0
22676;DHT22;12521;43.310;21.876;2024-02-15T02:35:01;4.4;96.0
22676;DHT22;12521;43.310;21.876;2024-02-15T02:48:49;3.7;96.0
22676;DHT22;12521;43.310;21.876;2024-02-15T02:53:26;3.7;96.0
22676;DHT22;12521;43.310;21.876;2024-02-15T02:58:03;3.7;96.0
22676;DHT22;12521;43.310;21.876;2024-02-15T03:02:40;3.7;96.0
22676;DHT22;12521;43.310;21.876;2024-02-15T03:07:16;3.8;96.0
22676;DHT22;12521;43.310;21.876;2024-02-15T03:11:53;3.8;96.0
22676;DHT22;12521;43.310;21.876;2024-02-15T03:16:29;3.9;96.0
22676;DHT22;12521;43.310;21.876;2024-02-15T03:21:05;3.9;96.0
22676;DHT22;12521;43.310;21.876;2024-02-15T03:25:43;3.9;96.0
22676;DHT22;12521;43.310;21.876;2024-02-15T03:30:25;3.9;96.0
22676;DHT22;12521;43.310;21.876;2024-02-15T03:35:01;3.9;96.0
22676;DHT22;12521;43.310;21.876;2024-02-15T03:39:37;3.9;96.0
22676;DHT22;12521;43.310;21.876;2024-02-15T03:44:13;3.9;96.0
22676;DHT22;12521;43.310;21.876;2024-02-15T03:48:50;4.0;96.0
22676;DHT22;12521;43.310;21.876;2024-02-15T03:53:26;4.0;96.0
22676;DHT22;12521;43.310;21.876;2024-02-15T03:58:03;4.0;96.0
22676;DHT22;12521;43.310;21.876;2024-02-15T04:02:40;4.0;96.0
22676;DHT22;12521;43.310;21.876;2024-02-15T04:07:17;4.0;96.0
22676;DHT22;12521;43.310;21.876;2024-02-15T04:11:55;4.0;96.0
22676;DHT22;12521;43.310;21.876;2024-02-15T04:25:45;3.9;96.0
22676;DHT22;12521;43.310;21.876;2024-02-15T04:30:21;3.9;96.0
22676;DHT22;12521;43.310;21.876;2024-02-15T04:34:58;3.9;96.0
22676;DHT22;12521;43.310;21.876;2024-02-15T04:39:36;3.9;96.0
22676;DHT22;12521;43.310;21.876;2024-02-15T04:44:13;3.9;96.0
22676;DHT22;12521;43.310;21.876;2024-02-15T04:48:49;3.9;96.0
22676;DHT22;12521;43.310;21.876;2024-02-15T04:53:26;3.9;96.0
22676;DHT22;12521;43.310;21.876;2024-02-15T05:07:15;3.2;96.0
22676;DHT22;12521;43.310;21.876;2024-02-15T05:11:51;3.2;96.0
22676;DHT22;12521;43.310;21.876;2024-02-15T05:16:27;3.2;96.0
22676;DHT22;12521;43.310;21.876;2024-02-15T05:21:05;3.2;96.0
22676;DHT22;12521;43.310;21.876;2024-02-15T05:25:42;3.2;96.0
22676;DHT22;12521;43.310;21.876;2024-02-15T05:30:18;3.2;96.0
22676;DHT22;12521;43.310;21.876;2024-02-15T05:34:54;3.2;96.0
22676;DHT22;12521;43.310;21.876;2024-02-15T06:07:08;3.5;96.0
22676;DHT22;12521;43.310;21.876;2024-02-15T06:11:44;3.5;96.0
22676;DHT22;12521;43.310;21.876;2024-02-15T06:16:20;3.5;96.0
22676;DHT22;12521;43.310;21.876;2024-02-15T06:20:58;3.5;96.0
22676;DHT22;12521;43.310;21.876;2024-02-15T06:25:35;3.4;96.0
22676;DHT22;12521;43.310;21.876;2024-02-15T06:30:15;3.4;96.0
22676;DHT22;12521;43.310;21.876;2024-02-15T06:34:51;3.4;96.0
22676;DHT22;12521;43.310;21.876;2024-02-15T06:39:27;3.4;96.0
22676;DHT22;12521;43.310;21.876;2024-02-15T06:44:04;3.4;96.0
22676;DHT22;12521;43.310;21.876;2024-02-15T06:48:42;3.2;96.0
22676;DHT22;12521;43.310;21.876;2024-02-15T06:53:20;3.2;96.0
22676;DHT22;12521;43.310;21.876;2024-02-15T06:57:57;2.9;96.0
22676;DHT22;12521;43.310;21.876;2024-02-15T07:02:34;2.9;96.0
22676;DHT22;12521;43.310;21.876;2024-02-15T07:07:11;2.9;96.0
22676;DHT22;12521;43.310;21.876;2024-02-15T07:11:48;2.9;96.0
22676;DHT22;12521;43.310;21.876;2024-02-15T08:07:04;3.6;96.0
22676;DHT22;12521;43.310;21.876;2024-02-15T08:11:40;3.6;96.0
22676;DHT22;12521;43.310;21.876;2024-02-15T08:16:22;3.6;96.0
22676;DHT22;12521;43.310;21.876;2024-02-15T08:20:59;3.6;96.0
22676;DHT22;12521;43.310;21.876;2024-02-15T08:25:39;3.6;96.0
22676;DHT22;12521;43.310;21.876;2024-02-15T08:30:16;3.6;96.0
22676;DHT22;12521;43.310;21.876;2024-02-15T08:34:52;3.6;96.0
22676;DHT22;12521;43.310;21.876;2024-02-15T08:48:41;5.0;96.0
22676;DHT22;12521;43.310;21.876;2024-02-15T08:53:17;5.0;96.0
22676;DHT22;12521;43.310;21.876;2024-02-15T08:57:54;5.0;96.0
22676;DHT22;12521;43.310;21.876;2024-02-15T09:02:30;5.0;96.0
22676;DHT22;12521;43.310;21.876;2024-02-15T09:07:07;5.2;96.0
22676;DHT22;12521;43.310;21.876;2024-02-15T09:11:44;5.2;96.0
22676;DHT22;12521;43.310;21.876;2024-02-15T09:16:20;5.3;96.0
22676;DHT22;12521;43.310;21.876;2024-02-15T09:20:56;5.3;96.0
22676;DHT22;12521;43.310;21.876;2024-02-15T09:25:33;5.3;96.0
22676;DHT22;12521;43.310;21.876;2024-02-15T09:30:14;5.5;96.0
22676;DHT22;12521;43.310;21.876;2024-02-15T09:34:53;5.5;96.0
22676;DHT22;12521;43.310;21.876;2024-02-15T09:39:30;5.7;96.0
22676;DHT22;12521;43.310;21.876;2024-02-15T09:44:07;5.7;96.0
22676;DHT22;12521;43.310;21.876;2024-02-15T09:48:55;6.0;96.0
22676;DHT22;12521;43.310;21.876;2024-02-15T09:53:33;6.0;96.0
22676;DHT22;12521;43.310;21.876;2024-02-15T09:58:12;6.2;96.0
22676;DHT22;12521;43.310;21.876;2024-02-15T10:02:53;6.2;96.0
22676;DHT22;12521;43.310;21.876;2024-02-15T10:07:29;6.2;96.0
22676;DHT22;12521;43.310;21.876;2024-02-15T10:12:07;6.2;96.0
22676;DHT22;12521;43.310;21.876;2024-02-15T10:26:20;7.5;96.0
22676;DHT22;12521;43.310;21.876;2024-02-15T10:31:08;7.5;96.0
22676;DHT22;12521;43.310;21.876;2024-02-15T10:35:44;7.5;96.0
22676;DHT22;12521;43.310;21.876;2024-02-15T10:40:21;7.5;96.0
22676;DHT22;12521;43.310;21.876;2024-02-15T10:45:00;7.5;96.0
22676;DHT22;12521;43.310;21.876;2024-02-15T10:49:37;7.5;96.0
22676;DHT22;12521;43.310;21.876;2024-02-15T10:54:46;7.5;96.0
22676;DHT22;12521;43.310;21.876;2024-02-15T11:08:59;8.7;96.0
22676;DHT22;12521;43.310;21.876;2024-02-15T11:13:36;8.7;96.0
22676;DHT22;12521;43.310;21.876;2024-02-15T11:18:42;8.7;96.0
22676;DHT22;12521;43.310;21.876;2024-02-15T11:23:28;8.7;96.0
22676;DHT22;12521;43.310;21.876;2024-02-15T11:28:40;8.7;96.0
22676;DHT22;12521;43.310;21.876;2024-02-15T11:33:32;8.7;96.0
22676;DHT22;12521;43.310;21.876;2024-02-15T11:47:41;9.6;96.0
22676;DHT22;12521;43.310;21.876;2024-02-15T11:52:17;9.6;96.0
22676;DHT22;12521;43.310;21.876;2024-02-15T11:56:57;9.6;96.0
22676;DHT22;12521;43.310;21.876;2024-02-15T12:01:34;9.6;96.0
22676;DHT22;12521;43.310;21.876;2024-02-15T12:06:10;9.6;96.0
22676;DHT22;12521;43.310;21.876;2024-02-15T12:10:58;9.6;96.0
22676;DHT22;12521;43.310;21.876;2024-02-15T12:15:34;9.6;96.0
22676;DHT22;12521;43.310;21.876;2024-02-15T12:48:18;10.4;96.0
22676;DHT22;12521;43.310;21.876;2024-02-15T12:52:55;10.4;96.0
22676;DHT22;12521;43.310;21.876;2024-02-15T12:57:31;10.4;96.0
22676;DHT22;12521;43.310;21.876;2024-02-15T13:02:07;10.4;96.0
22676;DHT22;12521;43.310;21.876;2024-02-15T13:06:44;10.4;96.0
22676;DHT22;12521;43.310;21.876;2024-02-15T13:11:20;10.4;96.0
22676;DHT22;12521;43.310;21.876;2024-02-15T13:48:13;10.7;96.0
22676;DHT22;12521;43.310;21.876;2024-02-15T13:52:51;10.7;96.0
22676;DHT22;12521;43.310;21.876;2024-02-15T13:57:27;10.7;96.0
22676;DHT22;12521;43.310;21.876;2024-02-15T14:02:03;10.7;96.0
22676;DHT22;12521;43.310;21.876;2024-02-15T14:06:40;10.7;96.0
22676;DHT22;12521;43.310;21.876;2024-02-15T14:11:16;10.7;96.0
22676;DHT22;12521;43.310;21.876;2024-02-15T14:15:52;10.7;96.0
22676;DHT22;12521;43.310;21.876;2024-02-15T14:20:28;10.7;96.0
22676;DHT22;12521;43.310;21.876;2024-02-15T14:25:07;10.7;96.0
22676;DHT22;12521;43.310;21.876;2024-02-15T14:29:43;10.7;96.0
22676;DHT22;12521;43.310;21.876;2024-02-15T14:34:19;10.7;96.0
22676;DHT22;12521;43.310;21.876;2024-02-15T14:48:09;10.4;96.0
22676;DHT22;12521;43.310;21.876;2024-02-15T14:52:46;10.4;96.0
22676;DHT22;12521;43.310;21.876;2024-02-15T14:57:22;10.4;96.0
22676;DHT22;12521;43.310;21.876;2024-02-15T15:01:58;10.4;96.0
22676;DHT22;12521;43.310;21.876;2024-02-15T15:06:35;10.4;96.0
22676;DHT22;12521;43.310;21.876;2024-02-15T15:11:12;10.4;96.0
22676;DHT22;12521;43.310;21.876;2024-02-15T15:15:49;10.4;96.0
22676;DHT22;12521;43.310;21.876;2024-02-15T15:20:26;10.3;96.0
22676;DHT22;12521;43.310;21.876;2024-02-15T15:25:05;10.3;96.0
22676;DHT22;12521;43.310;21.876;2024-02-15T15:29:42;10.2;96.0
22676;DHT22;12521;43.310;21.876;2024-02-15T15:34:18;10.2;96.0
22676;DHT22;12521;43.310;21.876;2024-02-15T15:38:55;10.1;96.0
22676;DHT22;12521;43.310;21.876;2024-02-15T15:43:32;10.1;96.0
22676;DHT22;12521;43.310;21.876;2024-02-15T15:48:08;10.1;96.0
22676;DHT22;12521;43.310;21.876;2024-02-15T15:52:44;10.1;96.0
22676;DHT22;12521;43.310;21.876;2024-02-15T17:47:51;8.6;96.0
22676;DHT22;12521;43.310;21.876;2024-02-15T17:52:27;8.6;96.0
22676;DHT22;12521;43.310;21.876;2024-02-15T17:57:05;8.6;96.0
22676;DHT22;12521;43.310;21.876;2024-02-15T18:01:42;8.6;96.0
22676;DHT22;12521;43.310;21.876;2024-02-15T18:06:18;8.6;96.0
22676;DHT22;12521;43.310;21.876;2024-02-15T18:10:55;8.6;96.0
22676;DHT22;12521;43.310;21.876;2024-02-15T18:15:31;8.6;96.0
22676;DHT22;12521;43.310;21.876;2024-02-15T18:20:11;8.6;96.0
22676;DHT22;12521;43.310;21.876;2024-02-15T18:24:47;8.6;96.0
22676;DHT22;12521;43.310;21.876;2024-02-15T18:29:24;8.2;96.0
22676;DHT22;12521;43.310;21.876;2024-02-15T18:34:00;8.2;96.0
22676;DHT22;12521;43.310;21.876;2024-02-15T18:38:36;7.9;96.0
22676;DHT22;12521;43.310;21.876;2024-02-15T18:43:12;7.9;96.0
22676;DHT22;12521;43.310;21.876;2024-02-15T18:47:49;7.5;96.0
22676;DHT22;12521;43.310;21.876;2024-02-15T18:52:26;7.5;96.0
22676;DHT22;12521;43.310;21.876;2024-02-15T18:57:03;7.1;96.0
22676;DHT22;12521;43.310;21.876;2024-02-15T19:01:40;7.1;96.0
22676;DHT22;12521;43.310;21.876;2024-02-15T19:06:16;7.1;96.0
22676;DHT22;12521;43.310;21.876;2024-02-15T19:10:53;7.1;96.0
22676;DHT22;12521;43.310;21.876;2024-02-15T19:15:29;7.1;96.0
22676;DHT22;12521;43.310;21.876;2024-02-15T19:47:49;5.8;96.0
22676;DHT22;12521;43.310;21.876;2024-02-15T19:52:26;5.8;96.0
22676;DHT22;12521;43.310;21.876;2024-02-15T19:57:04;5.8;96.0
22676;DHT22;12521;43.310;21.876;2024-02-15T20:01:40;5.8;96.0
22676;DHT22;12521;43.310;21.876;2024-02-15T20:06:17;5.8;96.0
22676;DHT22;12521;43.310;21.876;2024-02-15T20:10:54;5.6;96.0
22676;DHT22;12521;43.310;21.876;2024-02-15T20:15:31;5.6;96.0
22676;DHT22;12521;43.310;21.876;2024-02-15T20:20:10;5.5;96.0
22676;DHT22;12521;43.310;21.876;2024-02-15T20:24:46;5.5;96.0
22676;DHT22;12521;43.310;21.876;2024-02-15T20:29:23;5.5;96.0
22676;DHT22;12521;43.310;21.876;2024-02-15T20:34:01;5.5;96.0
22676;DHT22;12521;43.310;21.876;2024-02-15T23:10:47;3.7;96.0
22676;DHT22;12521;43.310;21.876;2024-02-15T23:15:24;3.7;96.0
22676;DHT22;12521;43.310;21.876;2024-02-15T23:20:01;3.7;96.0
22676;DHT22;12521;43.310;21.876;2024-02-15T23:24:37;3.7;96.0
22676;DHT22;12521;43.310;21.876;2024-02-15T23:29:14;3.7;96.0
22676;DHT22;12521;43.310;21.876;2024-02-15T23:33:50;3.7;96.0
22676;DHT22;12521;43.310;21.876;2024-02-15T23:47:38;3.2;96.0
22676;DHT22;12521;43.310;21.876;2024-02-15T23:52:14;3.2;96.0
22676;DHT22;12521;43.310;21.876;2024-02-15T23:56:50;3.2;96.0
